Ebensburg, Pennsylvania
Current Conditions -  °F | °C
As of 2:54 PM on Friday 19 Dec 2014 (Local Time) from KJST Reporting Station
Overcast Overcast  
Wind Chill: 13°   Ceiling: 1600
Heat Index: 25°   Visibility: 10mi
Dew Point: 20°   Wind: 15mph
Humidity: 81%   Direction: 290°WNW
Pressure: 30.09"   Gusts: NA
Location:  40.49°N, 78.72°W
Report Text: KJST 191954Z AUTO 29013KT 10SM OVC016 M04/M07 A3009 RMK AO2 SLP221 T10391067
Loading
Personal Weather Stations






























Interactive Weather Map New forecast layout! Learn more

10-Day Weather Forecast

Advertisements
Track Severe Weather on mobile